logo tempoitalia

Diretta Meteo Orange, Stati Uniti (USA)lunedì 31 agosto ore 02:35

Mappa
Sereno 19 °C Nebbia 24 Ore: T.min 18 T.max 31
Ponente Nord Km/h 0 Punto di rugiada: 19 °C Umidità: 100% Visibilità: 2 Km
Il sole sorge alle: 06:41 Il sole tramonta alle: 19:43
31 Agosto 2026 02:35 tempo osservato: Nebbia Nebbia 19 100 1018 vento: Nord N 0
31 Agosto 2026 02:15 tempo osservato: Foschia Foschia 20 100 1019 vento: Nord N 0
31 Agosto 2026 01:55 tempo osservato: Foschia Foschia 20 100 1019 vento: Nord N 0
31 Agosto 2026 01:35 tempo osservato: Foschia Foschia 20 100 1019 vento: Nord N 0
31 Agosto 2026 01:15 tempo osservato: Foschia Foschia 20 100 1019 vento: Nord N 0
31 Agosto 2026 00:55 tempo osservato: Nebbia Nebbia 20 100 1019 vento: Nord N 0
31 Agosto 2026 00:35 tempo osservato: Foschia Foschia 21 100 1019 vento: Nord N 0
31 Agosto 2026 00:15 tempo osservato: Foschia Foschia 21 100 1019 vento: Nord N 0
30 Agosto 2026 23:55 tempo osservato: Foschia Foschia 21 100 1019 vento: Nord N 0
30 Agosto 2026 23:35 tempo osservato: Foschia Foschia 21 100 1020 vento: Nord N 0
30 Agosto 2026 23:15 tempo osservato: Sereno Sereno 21 100 1020 vento: Nord N 0
30 Agosto 2026 22:55 tempo osservato: Sereno Sereno 21 100 1020 vento: Nord N 0
30 Agosto 2026 22:35 tempo osservato: Sereno Sereno 22 100 1020 vento: Nord N 0
30 Agosto 2026 22:15 tempo osservato: Sereno Sereno 22 100 1020 vento: Nord N 0
30 Agosto 2026 21:55 tempo osservato: Sereno Sereno 22 100 1020 vento: Nord N 0
30 Agosto 2026 21:35 tempo osservato: Sereno Sereno 22 100 1020 vento: Nord N 0
30 Agosto 2026 21:15 tempo osservato: Sereno Sereno 22 100 1020 vento: Nord N 0
30 Agosto 2026 20:55 tempo osservato: Pioggia Pioggia 24 83 1020 vento: Nord N 5.5
30 Agosto 2026 20:35 tempo osservato: Pioggia Pioggia 22 100 1019 vento: Nord N 0
30 Agosto 2026 20:15 tempo osservato: Sereno Sereno 22 100 1019 vento: Nord N 7.4
30 Agosto 2026 19:55 tempo osservato: Sereno Sereno 22 100 1019 vento: Nord N 0
30 Agosto 2026 19:35 tempo osservato: Pioggia Pioggia 23 94 1019 vento: Nord N 0
30 Agosto 2026 19:15 tempo osservato: Sereno Sereno 23 94 1019 vento: Nord N 0
30 Agosto 2026 18:55 tempo osservato: Sereno Sereno 23 88 1019 vento: Nord N 0
30 Agosto 2026 18:35 tempo osservato: Pioggia Pioggia 23 88 1019 vento: Nord N 0
30 Agosto 2026 18:15 tempo osservato: Pioggia Pioggia 23 78 1019 vento: Nord NE 9.3
30 Agosto 2026 17:55 tempo osservato: Sereno Sereno 26 61 1019 vento: Nord N/NO 22.2
30 Agosto 2026 17:35 tempo osservato: Sereno Sereno 28 65 1019 vento: Nord N 0
30 Agosto 2026 17:15 tempo osservato: Sereno Sereno 29 62 1018 vento: Nord S 9.3
30 Agosto 2026 16:55 tempo osservato: Temporale nelle vicinanze Temporale nelle vicinanze 30 55 1018 vento: Nord S 9.3
30 Agosto 2026 16:35 tempo osservato: Sereno Sereno 30 58 1018 vento: Nord SE 9.3
30 Agosto 2026 16:15 tempo osservato: Sereno Sereno 30 55 1019 vento: Nord S/SO 9.3
30 Agosto 2026 15:55 tempo osservato: Sereno Sereno 31 55 1019 vento: Nord S 14.8
30 Agosto 2026 15:35 tempo osservato: Sereno Sereno 31 55 1019 vento: Nord S/SE 9.3
30 Agosto 2026 15:15 tempo osservato: Sereno Sereno 30 55 1019 vento: Nord S/SO 16.7
30 Agosto 2026 14:55 tempo osservato: Sereno Sereno 30 58 1020 vento: Nord S 14.8
30 Agosto 2026 14:35 tempo osservato: Sereno Sereno 30 58 1020 vento: Nord S/SO 16.7
30 Agosto 2026 14:15 tempo osservato: Sereno Sereno 31 55 1020 vento: Nord S/SO 9.3
30 Agosto 2026 13:55 tempo osservato: Sereno Sereno 30 58 1021 vento: Nord S 14.8
30 Agosto 2026 13:35 tempo osservato: Sereno Sereno 30 58 1021 vento: Nord S/SO 13
30 Agosto 2026 13:15 tempo osservato: Sereno Sereno 29 62 1021 vento: Nord SO 13
30 Agosto 2026 12:55 tempo osservato: Sereno Sereno 28 65 1022 vento: Nord SO 13
30 Agosto 2026 12:35 tempo osservato: Sereno Sereno 28 69 1022 vento: Nord S 9.3
30 Agosto 2026 12:15 tempo osservato: Sereno Sereno 28 65 1022 vento: Nord SO 13
30 Agosto 2026 11:55 tempo osservato: Sereno Sereno 27 69 1022 vento: Nord SO 13
30 Agosto 2026 11:35 tempo osservato: Sereno Sereno 26 73 1022 vento: Nord S/SO 14.8
30 Agosto 2026 11:15 tempo osservato: Sereno Sereno 26 73 1022 vento: Nord S 14.8
30 Agosto 2026 10:55 tempo osservato: Sereno Sereno 25 78 1022 vento: Nord S 11.1
30 Agosto 2026 10:35 tempo osservato: Sereno Sereno 25 78 1022 vento: Nord S/SO 13
30 Agosto 2026 10:15 tempo osservato: Sereno Sereno 25 83 1022 vento: Nord S 9.3
30 Agosto 2026 09:55 tempo osservato: Sereno Sereno 23 94 1023 vento: Nord S 14.8
30 Agosto 2026 09:35 tempo osservato: Sereno Sereno 22 94 1023 vento: Nord S/SO 9.3
30 Agosto 2026 09:15 tempo osservato: Sereno Sereno 21 100 1023 vento: Nord S 9.3
30 Agosto 2026 08:55 tempo osservato: Sereno Sereno 21 100 1023 vento: Nord N 5.5
30 Agosto 2026 08:35 tempo osservato: Foschia Foschia 21 100 1023 vento: Nord S/SE 9.3
30 Agosto 2026 08:15 tempo osservato: Foschia Foschia 20 100 1023 vento: Nord S/SE 7.4
30 Agosto 2026 07:55 tempo osservato: Nebbia Nebbia 20 100 1023 vento: Nord N 5.5
30 Agosto 2026 07:35 tempo osservato: Nebbia Nebbia 20 100 1023 vento: Nord N 0
30 Agosto 2026 07:15 tempo osservato: Nebbia Nebbia 20 100 1023 vento: Nord N 0
30 Agosto 2026 06:55 tempo osservato: Foschia Foschia 20 100 1023 vento: Nord S 7.4
30 Agosto 2026 06:35 tempo osservato: Foschia Foschia 20 100 1023 vento: Nord N 5.5
30 Agosto 2026 06:15 tempo osservato: Sereno Sereno 20 100 1022 vento: Nord S 7.4
30 Agosto 2026 05:55 tempo osservato: Sereno Sereno 20 100 1022 vento: Nord N 5.5
30 Agosto 2026 05:35 tempo osservato: Sereno Sereno 20 100 1022 vento: Nord N 5.5
30 Agosto 2026 05:15 tempo osservato: Sereno Sereno 19 100 1023 vento: Nord N 0
30 Agosto 2026 04:55 tempo osservato: Sereno Sereno 18 100 1023 vento: Nord N 0
30 Agosto 2026 04:35 tempo osservato: Sereno Sereno 18 100 1022 vento: Nord N 5.5
30 Agosto 2026 04:15 tempo osservato: Sereno Sereno 18 100 1022 vento: Nord N 0
30 Agosto 2026 03:55 tempo osservato: Sereno Sereno 18 100 1023 vento: Nord N 0
30 Agosto 2026 03:35 tempo osservato: Sereno Sereno 18 100 1023 vento: Nord N 0
30 Agosto 2026 03:15 tempo osservato: Sereno Sereno 18 100 1023 vento: Nord N 0
30 Agosto 2026 02:55 tempo osservato: Sereno Sereno 18 100 1023 vento: Nord N 0
30 Agosto 2026 02:35 tempo osservato: Sereno Sereno 18 100 1023 vento: Nord N 0